Time;durP1;ratioP1;P1;durP2;ratioP2;P2;SDS_P1;SDS_P2;PMS_P1;PMS_P2;Temp;Humidity;BMP_temperature;BMP_pressure;BME280_temperature;BME280_humidity;BME280_pressure;Samples;Min_cycle;Max_cycle;Signal;HPM_P1;HPM_P2
2021/07/07 00:03:31;;;;;;;5.62;3.30;;;;;;;24.38;54.95;100374.16;5136275;56;1138799;-82
2021/07/07 00:08:37;;;;;;;6.25;3.10;;;;;;;24.33;55.05;100372.09;5136271;56;1138768;-84
2021/07/07 00:13:42;;;;;;;4.03;3.08;;;;;;;24.30;55.30;100368.45;5136718;56;1138588;-82
2021/07/07 00:18:48;;;;;;;6.33;3.25;;;;;;;24.30;55.46;100368.45;5136689;56;1138543;-82
2021/07/07 00:23:54;;;;;;;4.25;3.62;;;;;;;24.31;55.46;100368.77;5137106;56;1138683;-82
2021/07/07 00:29:00;;;;;;;8.30;3.05;;;;;;;24.30;55.56;100357.64;5136992;56;1138775;-82
2021/07/07 00:34:05;;;;;;;4.37;2.87;;;;;;;24.17;55.41;100355.77;5137118;56;1138559;-83
2021/07/07 00:39:11;;;;;;;7.30;2.85;;;;;;;23.99;55.46;100352.06;5137225;56;1138707;-83
2021/07/07 00:44:17;;;;;;;3.42;2.98;;;;;;;23.89;56.06;100354.38;5137092;56;1138628;-83
2021/07/07 00:49:22;;;;;;;4.62;3.17;;;;;;;23.71;56.24;100347.73;5137086;56;1138655;-83
2021/07/07 00:54:31;;;;;;;6.50;2.85;;;;;;;23.56;56.95;100341.72;5141983;55;1138575;-83
2021/07/07 00:59:38;;;;;;;3.10;2.83;;;;;;;23.52;57.66;100347.77;5224382;55;1138579;-82
2021/07/07 01:04:44;;;;;;;6.37;3.08;;;;;;;23.43;57.83;100351.97;5227947;55;1138579;-82
2021/07/07 01:09:50;;;;;;;3.85;3.22;;;;;;;23.23;58.25;100374.55;5234464;55;1138758;-82
2021/07/07 01:14:59;;;;;;;8.88;3.02;;;;;;;22.70;58.43;100379.26;5234935;55;1138636;-82
2021/07/07 01:20:12;;;;;;;8.28;3.33;;;;;;;22.55;59.29;100396.09;5201694;55;1138564;-82
2021/07/07 01:25:19;;;;;;;7.72;3.75;;;;;;;22.32;59.65;100403.61;5234761;55;1138608;-82
2021/07/07 01:30:25;;;;;;;7.33;3.45;;;;;;;22.43;60.50;100403.91;5231387;55;1138507;-83
2021/07/07 01:35:31;;;;;;;3.95;3.12;;;;;;;22.65;60.82;100393.84;5190411;55;1138695;-82
2021/07/07 01:40:37;;;;;;;10.60;4.28;;;;;;;22.80;60.75;100402.66;5234174;55;1138535;-82
2021/07/07 01:45:43;;;;;;;9.35;4.15;;;;;;;22.94;60.94;100409.44;5233633;55;1140635;-82
2021/07/07 01:50:49;;;;;;;6.67;3.70;;;;;;;23.08;60.89;100416.55;5232518;55;1138688;-82
2021/07/07 01:55:55;;;;;;;4.10;3.42;;;;;;;23.12;60.74;100415.95;5202758;55;1138518;-82
2021/07/07 02:01:01;;;;;;;7.10;3.25;;;;;;;23.15;60.75;100424.16;5146000;56;1138584;-82
2021/07/07 02:06:07;;;;;;;7.00;3.65;;;;;;;23.06;60.53;100433.48;5144044;56;1138581;-82
2021/07/07 02:11:13;;;;;;;6.10;2.98;;;;;;;22.65;60.61;100442.89;5136853;56;1138613;-82
2021/07/07 02:16:19;;;;;;;5.00;3.58;;;;;;;22.39;61.51;100441.71;5135823;56;1138783;-82
2021/07/07 02:21:25;;;;;;;3.87;3.20;;;;;;;22.32;62.09;100433.25;5133539;56;1138542;-82
2021/07/07 02:26:30;;;;;;;4.85;4.35;;;;;;;22.34;62.42;100438.77;5133802;56;1138612;-82
2021/07/07 02:31:36;;;;;;;8.18;3.70;;;;;;;22.50;62.86;100435.44;5131833;56;1138694;-82
2021/07/07 02:36:42;;;;;;;5.65;2.80;;;;;;;22.62;62.62;100431.15;5137020;56;1138853;-84
2021/07/07 02:41:48;;;;;;;6.95;3.22;;;;;;;22.61;62.40;100438.95;5137059;56;1138761;-83
2021/07/07 02:46:54;;;;;;;6.37;3.70;;;;;;;22.06;62.64;100452.25;5136617;56;1138763;-82
2021/07/07 02:52:00;;;;;;;12.35;3.90;;;;;;;22.06;62.64;100452.25;5137016;56;1138783;-82
2021/07/07 02:57:06;;;;;;;5.45;3.58;;;;;;;22.06;63.69;100451.41;5136881;56;1140975;-82
2021/07/07 03:02:12;;;;;;;4.12;3.70;;;;;;;22.10;63.78;100450.00;5136885;56;1138725;-83
2021/07/07 03:07:32;;;;;;;10.03;3.27;;;;;;;22.11;63.81;100455.72;5139428;56;1138672;-82
2021/07/07 03:12:25;;;;;;;8.30;3.45;;;;;;;22.20;64.42;100459.08;5143677;56;1140779;-82
2021/07/07 03:17:31;;;;;;;5.65;3.50;;;;;;;22.21;64.15;100464.28;5146957;56;1138592;-84
2021/07/07 03:22:38;;;;;;;8.23;4.10;;;;;;;22.24;64.40;100471.14;5147269;56;1138493;-82
2021/07/07 03:27:44;;;;;;;4.80;4.05;;;;;;;22.18;64.33;100476.78;5147184;56;1138698;-81
2021/07/07 03:32:50;;;;;;;8.03;4.10;;;;;;;22.05;64.27;100480.20;5147275;56;1138554;-83
2021/07/07 03:37:57;;;;;;;9.65;3.42;;;;;;;21.99;64.36;100489.56;5147130;56;1138721;-82
2021/07/07 03:43:03;;;;;;;9.23;4.03;;;;;;;22.00;64.37;100489.38;5147083;56;1138538;-82
2021/07/07 03:48:09;;;;;;;6.05;2.72;;;;;;;22.00;64.28;100490.72;5147301;56;1138533;-82
2021/07/07 03:53:15;;;;;;;9.86;3.88;;;;;;;21.84;64.39;100490.15;5147291;56;1138535;-82
2021/07/07 03:58:21;;;;;;;3.40;3.10;;;;;;;21.69;64.84;100494.25;5146736;56;1138515;-81
2021/07/07 04:03:27;;;;;;;5.78;2.77;;;;;;;21.55;65.43;100513.44;5146586;56;1138561;-83
2021/07/07 04:08:33;;;;;;;4.03;2.55;;;;;;;21.46;66.19;100524.52;5145565;56;1138636;-82
2021/07/07 04:13:39;;;;;;;3.00;2.80;;;;;;;21.39;66.72;100516.36;5136380;56;1138684;-82
2021/07/07 04:18:45;;;;;;;4.83;2.92;;;;;;;21.38;67.17;100512.03;5136434;56;1138714;-83
2021/07/07 04:23:50;;;;;;;6.10;3.30;;;;;;;21.38;67.27;100523.62;5136655;56;1138624;-82
2021/07/07 04:28:56;;;;;;;3.35;2.45;;;;;;;21.39;67.54;100527.12;5136376;56;1138853;-81
2021/07/07 04:34:02;;;;;;;2.95;2.67;;;;;;;21.44;67.94;100535.47;5136877;56;1138580;-82
2021/07/07 04:39:10;;;;;;;11.33;4.00;;;;;;;21.47;68.15;100556.63;5136474;56;1138751;-82
2021/07/07 04:44:16;;;;;;;3.46;2.78;;;;;;;21.49;68.43;100554.58;5136642;56;1140631;-82
2021/07/07 04:49:21;;;;;;;7.33;1.92;;;;;;;21.57;68.50;100552.28;5136650;56;1138658;-83
2021/07/07 04:54:27;;;;;;;5.40;2.02;;;;;;;21.55;69.39;100547.08;5136777;56;1138659;-83
2021/07/07 04:59:33;;;;;;;2.25;1.85;;;;;;;21.68;69.16;100558.53;5137030;56;1138710;-82
2021/07/07 05:04:39;;;;;;;1.55;1.30;;;;;;;21.82;69.16;100563.55;5142456;55;1138743;-83
2021/07/07 05:09:45;;;;;;;1.42;1.30;;;;;;;21.84;69.58;100565.55;5142801;55;1138684;-85
2021/07/07 05:14:51;;;;;;;4.27;1.77;;;;;;;21.95;69.32;100567.72;5138351;56;1141443;-84
2021/07/07 05:19:58;;;;;;;5.17;2.62;;;;;;;22.02;68.82;100571.33;5134257;56;1138621;-84
2021/07/07 05:25:05;;;;;;;2.35;1.70;;;;;;;22.04;68.61;100578.20;5139886;56;1138715;-85
2021/07/07 05:30:14;;;;;;;5.50;1.55;;;;;;;22.08;68.78;100582.19;5145939;56;1138695;-81
2021/07/07 05:35:19;;;;;;;1.60;1.50;;;;;;;22.07;68.88;100583.72;5124265;56;1138908;-82
2021/07/07 05:40:26;;;;;;;3.37;1.40;;;;;;;22.05;68.82;100594.69;5181614;55;1138504;-82
2021/07/07 05:45:34;;;;;;;8.35;1.22;;;;;;;22.07;68.81;100592.64;5127394;56;1138613;-82
2021/07/07 05:50:39;;;;;;;2.02;1.77;;;;;;;22.08;69.13;100603.73;5145823;56;1138524;-83
2021/07/07 05:55:46;;;;;;;3.87;1.30;;;;;;;22.16;68.87;100601.92;5137366;56;1138516;-81
2021/07/07 06:00:52;;;;;;;2.15;1.42;;;;;;;22.32;68.78;100607.06;5103572;56;1138840;-83
2021/07/07 06:05:58;;;;;;;2.17;1.12;;;;;;;22.56;68.82;100596.40;5126478;56;1138706;-83
2021/07/07 06:11:04;;;;;;;9.05;1.60;;;;;;;22.80;68.53;100602.21;5153788;56;1138623;-84
2021/07/07 06:16:10;;;;;;;1.42;1.35;;;;;;;23.09;67.92;100590.36;5143148;55;1138583;-84
2021/07/07 06:21:16;;;;;;;4.65;2.00;;;;;;;23.22;67.29;100588.25;5130045;55;1138649;-82
2021/07/07 06:26:22;;;;;;;4.10;1.57;;;;;;;23.28;66.99;100591.52;5148965;56;1138672;-82
2021/07/07 06:31:45;;;;;;;5.42;2.10;;;;;;;23.43;66.69;100594.07;5156814;55;1138549;-81
2021/07/07 06:36:43;;;;;;;1.05;0.95;;;;;;;23.59;66.28;100600.51;5141458;56;1138649;-82
2021/07/07 06:41:49;;;;;;;1.20;1.10;;;;;;;23.74;65.54;100605.23;5144307;56;1138806;-82
2021/07/07 06:46:55;;;;;;;6.72;0.93;;;;;;;23.85;65.21;100608.70;5157002;55;1138600;-84
2021/07/07 06:52:00;;;;;;;2.87;1.07;;;;;;;24.06;65.46;100618.53;5143453;56;1138674;-83
2021/07/07 06:57:06;;;;;;;2.37;1.10;;;;;;;24.31;65.01;100616.62;5136296;56;1138668;-83
2021/07/07 07:02:12;;;;;;;5.90;1.32;;;;;;;24.51;64.56;100624.23;5148147;56;1138633;-83
2021/07/07 07:07:17;;;;;;;1.42;1.22;;;;;;;24.73;63.92;100617.59;5163084;55;1138709;-85
2021/07/07 07:12:24;;;;;;;1.05;0.98;;;;;;;24.90;63.23;100621.50;5127052;56;1138629;-83
2021/07/07 07:17:30;;;;;;;9.13;1.05;;;;;;;25.06;62.55;100618.91;5169778;55;1138608;-85
2021/07/07 07:22:38;;;;;;;4.80;1.15;;;;;;;25.11;63.01;100624.53;5167514;55;1138755;-84
2021/07/07 07:27:44;;;;;;;2.37;1.37;;;;;;;25.26;62.53;100618.88;5146550;55;1138664;-83
2021/07/07 07:32:51;;;;;;;2.30;1.15;;;;;;;25.34;62.23;100602.94;5146548;55;1138760;-83
2021/07/07 07:38:04;;;;;;;10.82;1.67;;;;;;;25.49;62.20;100595.38;5185932;55;1138066;-84
2021/07/07 07:43:10;;;;;;;6.42;2.83;;;;;;;25.80;61.93;100581.94;5155374;55;1140783;-83
2021/07/07 07:48:17;;;;;;;2.15;1.40;;;;;;;26.13;62.02;100572.73;5143477;55;1138746;-83
2021/07/07 07:53:23;;;;;;;1.67;1.07;;;;;;;26.31;60.89;100575.56;5174596;55;1138631;-83
2021/07/07 07:58:29;;;;;;;2.25;1.25;;;;;;;26.31;59.87;100578.80;5133865;55;1138544;-83
2021/07/07 08:03:36;;;;;;;3.50;1.72;;;;;;;26.30;58.98;100571.19;5177289;55;1138504;-83
2021/07/07 08:08:43;;;;;;;2.75;1.30;;;;;;;26.38;60.34;100579.59;5166329;55;1138544;-83
2021/07/07 08:13:49;;;;;;;21.10;1.77;;;;;;;26.61;59.42;100575.72;5176882;55;1138777;-84
2021/07/07 08:18:55;;;;;;;9.46;1.10;;;;;;;26.87;59.22;100570.06;5147748;55;1140690;-83
2021/07/07 08:24:03;;;;;;;2.95;1.05;;;;;;;27.07;57.16;100578.54;5160469;55;1139062;-84
2021/07/07 08:29:09;;;;;;;3.08;1.32;;;;;;;27.27;57.83;100580.52;5155922;55;1138864;-84
2021/07/07 08:34:17;;;;;;;2.20;0.98;;;;;;;27.50;56.30;100581.19;5149433;55;1138754;-84
2021/07/07 08:39:23;;;;;;;2.20;1.25;;;;;;;27.71;56.35;100589.39;5136783;55;1138552;-82
2021/07/07 08:44:30;;;;;;;13.70;1.30;;;;;;;27.80;56.44;100595.66;5144941;55;1138550;-83
2021/07/07 08:49:36;;;;;;;1.75;1.15;;;;;;;27.88;55.33;100593.14;5151531;55;1140720;-83
2021/07/07 08:54:46;;;;;;;11.28;1.70;;;;;;;27.88;54.72;100595.33;5155948;55;1138543;-82
2021/07/07 08:59:50;;;;;;;2.08;1.25;;;;;;;28.09;55.49;100588.55;5144655;55;1140599;-73
2021/07/07 09:04:56;;;;;;;2.37;0.90;;;;;;;28.35;55.00;100585.97;5138882;55;1138753;-80
2021/07/07 09:10:01;;;;;;;1.07;0.98;;;;;;;28.61;53.99;100584.70;5162175;55;1138628;-81
2021/07/07 09:15:15;;;;;;;3.05;1.20;;;;;;;28.80;53.54;100589.00;5164475;55;1138762;-72
2021/07/07 09:20:43;;;;;;;2.70;1.30;;;;;;;28.96;52.98;100592.38;5102858;55;1138896;-81
2021/07/07 09:25:53;;;;;;;9.75;1.27;;;;;;;29.04;53.05;100594.72;5087018;56;1138576;-85
2021/07/07 09:31:07;;;;;;;1.65;1.20;;;;;;;29.21;52.24;100600.27;5093506;56;1138679;-86
2021/07/07 09:36:23;;;;;;;2.02;1.10;;;;;;;29.30;52.04;100602.94;5068372;56;1138835;-84
2021/07/07 09:41:29;;;;;;;11.93;1.82;;;;;;;29.29;51.81;100609.98;5121810;56;1138791;-81
2021/07/07 09:46:36;;;;;;;10.85;1.12;;;;;;;29.42;52.10;100612.47;5106679;55;1140741;-84
2021/07/07 09:51:49;;;;;;;1.40;1.30;;;;;;;29.45;51.01;100610.63;5122215;56;1140656;-83
2021/07/07 09:56:55;;;;;;;4.87;1.40;;;;;;;29.32;50.05;100614.95;5066155;56;1138713;-82
2021/07/07 10:02:01;;;;;;;7.70;1.70;;;;;;;29.20;50.77;100622.30;5021157;56;1138735;-83
2021/07/07 10:07:09;;;;;;;8.00;1.27;;;;;;;29.23;51.30;100616.37;5065143;56;1138907;-73
2021/07/07 10:12:15;;;;;;;1.15;1.05;;;;;;;29.04;50.60;100605.61;5035060;56;1138630;-86
2021/07/07 10:17:21;;;;;;;4.20;1.22;;;;;;;29.11;51.08;100606.86;5122663;56;1138583;-86
2021/07/07 10:22:26;;;;;;;6.03;1.27;;;;;;;29.23;50.19;100600.03;5153042;55;1138725;-83
2021/07/07 10:27:35;;;;;;;1.30;1.30;;;;;;;29.18;51.03;100613.00;5173126;55;1138590;-84
2021/07/07 10:32:41;;;;;;;7.10;1.60;;;;;;;29.12;50.07;100604.97;5161911;55;1138687;-82
2021/07/07 10:37:50;;;;;;;3.00;1.57;;;;;;;29.17;50.03;100612.73;5153391;55;1138636;-82
2021/07/07 10:42:56;;;;;;;4.76;1.64;;;;;;;29.31;51.37;100614.66;5169952;55;1138617;-86
2021/07/07 10:48:30;;;;;;;1.30;1.20;;;;;;;29.65;51.50;100613.75;5156697;55;1138862;-78
2021/07/07 10:53:37;;;;;;;1.10;1.10;;;;;;;29.82;49.54;100612.45;5180895;55;1138602;-83
2021/07/07 10:58:43;;;;;;;3.73;1.07;;;;;;;29.62;48.86;100605.25;5154477;55;1138663;-84
2021/07/07 11:04:03;;;;;;;0.93;0.90;;;;;;;29.69;49.83;100620.39;5155954;55;1138572;-84
2021/07/07 11:09:20;;;;;;;1.45;1.00;;;;;;;29.99;50.25;100613.36;5154725;55;1138691;-81
2021/07/07 11:14:28;;;;;;;1.12;0.95;;;;;;;30.05;49.28;100604.21;5147585;55;1138632;-86
2021/07/07 11:19:47;;;;;;;0.95;0.90;;;;;;;29.91;48.67;100615.09;5159379;55;1139025;-81
2021/07/07 11:24:56;;;;;;;1.40;1.17;;;;;;;29.76;48.54;100599.81;5147231;55;1138654;-76
2021/07/07 11:30:07;;;;;;;10.60;1.30;;;;;;;29.68;48.19;100605.63;5150079;55;1138704;-83
2021/07/07 11:35:18;;;;;;;8.50;0.98;;;;;;;29.47;48.21;100615.84;5146371;55;1140739;-79
2021/07/07 11:40:26;;;;;;;4.50;0.93;;;;;;;28.91;47.06;100622.20;5162429;55;1138906;-80
2021/07/07 11:45:38;;;;;;;4.08;1.10;;;;;;;28.39;47.40;100626.63;5158042;55;1138770;-80
2021/07/07 11:50:48;;;;;;;3.33;0.80;;;;;;;27.91;48.25;100637.54;5164274;55;1138690;-83
2021/07/07 11:56:07;;;;;;;2.22;1.00;;;;;;;27.41;49.54;100658.59;5143698;55;1138584;-85
2021/07/07 12:01:23;;;;;;;3.85;0.72;;;;;;;27.03;50.54;100660.16;5150186;55;1138703;-88
2021/07/07 12:06:40;;;;;;;6.58;1.77;;;;;;;26.70;51.69;100666.66;5150922;55;1138607;-76
2021/07/07 12:11:58;;;;;;;4.55;1.80;;;;;;;26.48;51.55;100677.56;5152012;55;1138633;-76
2021/07/07 12:17:05;;;;;;;12.65;1.87;;;;;;;26.36;52.18;100689.64;5147181;55;1138665;-79
2021/07/07 12:22:16;;;;;;;7.92;1.25;;;;;;;26.14;51.06;100702.65;5154258;55;1140696;-82
2021/07/07 12:27:21;;;;;;;8.90;1.60;;;;;;;25.80;50.69;100710.64;5164240;55;1138724;-76
2021/07/07 12:32:29;;;;;;;8.90;1.40;;;;;;;25.29;51.78;100725.92;5143274;55;1138700;-83
2021/07/07 12:37:35;;;;;;;5.62;0.95;;;;;;;25.15;52.97;100735.41;5138476;55;1138644;-79
2021/07/07 12:42:41;;;;;;;12.68;1.50;;;;;;;24.80;53.61;100738.80;5137469;55;1138740;-78
2021/07/07 12:48:05;;;;;;;6.58;0.90;;;;;;;24.46;54.15;100754.64;5146757;55;1140738;-81
2021/07/07 12:53:11;;;;;;;4.87;1.22;;;;;;;24.34;54.78;100765.73;5163402;55;1138820;-84
2021/07/07 12:58:16;;;;;;;11.03;1.42;;;;;;;24.19;55.09;100783.94;5137895;55;1138604;-78
2021/07/07 13:03:35;;;;;;;5.92;1.80;;;;;;;24.18;54.91;100806.59;5137454;55;1140711;-81
2021/07/07 13:08:46;;;;;;;2.98;1.20;;;;;;;24.18;54.91;100806.59;5146194;55;1138689;-78
2021/07/07 13:13:49;;;;;;;4.85;1.30;;;;;;;23.91;55.02;100802.92;5142718;55;1138711;-74
2021/07/07 13:19:14;;;;;;;1.67;1.07;;;;;;;23.71;55.48;100802.79;5116953;55;1174155;-81
2021/07/07 13:24:24;;;;;;;7.47;1.45;;;;;;;23.44;56.63;100821.98;5152194;55;1138885;-75
2021/07/07 13:29:49;;;;;;;1.57;1.12;;;;;;;23.18;57.67;100819.58;5147797;55;1138845;-79
2021/07/07 13:35:04;;;;;;;4.17;1.50;;;;;;;23.01;58.24;100823.89;5147430;55;1138882;-76
2021/07/07 13:40:18;;;;;;;6.75;1.80;;;;;;;22.86;59.44;100834.41;5147862;55;1138921;-85
2021/07/07 13:45:24;;;;;;;1.92;1.27;;;;;;;22.68;59.67;100846.42;5164797;55;1138905;-78
2021/07/07 13:50:30;;;;;;;4.85;1.42;;;;;;;22.60;61.23;100852.45;5148265;55;1138754;-82
2021/07/07 13:55:36;;;;;;;3.08;1.27;;;;;;;22.42;60.95;100852.84;5148487;55;1138706;-83
2021/07/07 14:00:42;;;;;;;2.00;0.93;;;;;;;22.26;62.07;100854.39;5147784;55;1138752;-80
2021/07/07 14:05:47;;;;;;;6.12;1.70;;;;;;;22.12;62.38;100856.08;5170931;55;1138650;-82
2021/07/07 14:10:53;;;;;;;4.60;1.00;;;;;;;21.98;63.28;100859.56;5173165;55;1138697;-83
2021/07/07 14:16:01;;;;;;;1.94;1.16;;;;;;;21.88;63.71;100873.79;5207496;55;1138669;-83
2021/07/07 14:21:06;;;;;;;3.83;1.10;;;;;;;21.76;65.00;100891.75;5184883;55;1138824;-80
2021/07/07 14:26:12;;;;;;;4.00;1.10;;;;;;;21.62;64.57;100897.09;5194046;55;1138644;-78
2021/07/07 14:31:18;;;;;;;10.70;2.02;;;;;;;21.57;64.74;100900.33;5219461;55;1138583;-82
2021/07/07 14:36:25;;;;;;;6.60;1.30;;;;;;;21.59;65.20;100908.22;5224298;55;1140742;-84
2021/07/07 14:41:33;;;;;;;2.33;1.20;;;;;;;21.50;64.59;100916.88;5224413;55;1138736;-84
2021/07/07 14:46:39;;;;;;;3.62;0.95;;;;;;;21.42;64.76;100929.04;5224586;55;1138815;-81
2021/07/07 14:51:45;;;;;;;2.20;0.65;;;;;;;21.25;65.01;100932.34;5224324;55;1138625;-84
2021/07/07 14:56:51;;;;;;;3.98;0.85;;;;;;;21.20;65.31;100942.83;5178085;55;1138519;-77
2021/07/07 15:01:57;;;;;;;8.13;0.90;;;;;;;21.14;64.99;100944.00;5117292;56;1138621;-81
2021/07/07 15:07:03;;;;;;;7.72;0.62;;;;;;;21.07;64.63;100964.06;5137236;56;1138562;-85
2021/07/07 15:12:09;;;;;;;7.53;0.85;;;;;;;20.93;64.77;100948.13;5137062;56;1138723;-79
2021/07/07 15:17:14;;;;;;;1.90;0.60;;;;;;;20.94;64.71;100939.56;5137616;55;1138694;-83
2021/07/07 15:22:20;;;;;;;2.87;0.70;;;;;;;20.91;65.00;100943.97;5157158;55;1138699;-84
2021/07/07 15:27:26;;;;;;;2.35;1.10;;;;;;;20.69;65.21;100949.60;5135542;56;1138794;-85
2021/07/07 15:32:34;;;;;;;1.10;0.82;;;;;;;20.59;65.18;100946.29;5146695;55;1138625;-77
2021/07/07 15:37:39;;;;;;;4.28;0.80;;;;;;;20.52;65.44;100952.02;5136627;56;1138608;-80
2021/07/07 15:42:45;;;;;;;1.52;0.93;;;;;;;20.47;65.93;100953.05;5143198;56;1138615;-83
2021/07/07 15:47:51;;;;;;;4.90;0.98;;;;;;;20.33;67.28;100955.89;5133759;56;1138580;-85
2021/07/07 15:52:57;;;;;;;3.67;1.12;;;;;;;20.14;67.26;100959.81;5130267;56;1138688;-77
2021/07/07 15:58:03;;;;;;;0.70;0.70;;;;;;;20.13;68.44;100958.63;5143822;56;1138699;-80
2021/07/07 16:03:09;;;;;;;3.17;1.22;;;;;;;19.92;68.30;100973.41;5146074;55;1138784;-82
2021/07/07 16:08:14;;;;;;;2.65;1.42;;;;;;;19.89;68.72;100980.45;5147307;56;1138602;-84
2021/07/07 16:13:21;;;;;;;3.92;1.85;;;;;;;19.89;68.90;100972.90;5136177;56;1138654;-84
2021/07/07 16:18:26;;;;;;;4.10;1.50;;;;;;;19.92;69.05;100973.91;5160572;56;1138728;-78
2021/07/07 16:23:32;;;;;;;4.15;1.57;;;;;;;20.00;69.93;100972.08;5137941;56;1138647;-80
2021/07/07 16:28:38;;;;;;;1.52;1.00;;;;;;;20.01;69.46;100973.72;5144970;55;1138817;-76
2021/07/07 16:33:44;;;;;;;6.47;0.78;;;;;;;19.96;69.99;100977.95;5168509;55;1138788;-76
2021/07/07 16:38:50;;;;;;;2.42;0.93;;;;;;;19.88;70.40;100979.27;5175819;55;1138636;-81
2021/07/07 16:43:56;;;;;;;2.27;0.90;;;;;;;19.83;70.84;101004.46;5233739;55;1219003;-86
2021/07/07 16:49:04;;;;;;;5.32;1.42;;;;;;;19.83;70.84;101004.46;5182141;55;1138744;-81
2021/07/07 16:54:10;;;;;;;1.20;0.70;;;;;;;19.81;70.83;100998.41;5147201;56;1138786;-78
2021/07/07 16:59:17;;;;;;;2.33;0.80;;;;;;;19.75;71.86;101017.36;5146851;56;1138684;-78
2021/07/07 17:04:23;;;;;;;3.55;0.90;;;;;;;19.65;72.08;101009.98;5146898;56;1138599;-76
2021/07/07 17:09:28;;;;;;;3.20;1.10;;;;;;;19.56;72.48;101014.47;5147325;56;1138610;-78
2021/07/07 17:14:34;;;;;;;5.47;1.35;;;;;;;19.46;73.70;101012.92;5147369;56;1138742;-79
2021/07/07 17:19:40;;;;;;;3.25;0.90;;;;;;;19.27;74.75;101021.58;5147232;56;1138708;-76
2021/07/07 17:24:45;;;;;;;2.77;2.05;;;;;;;19.23;74.48;101023.44;5147467;56;1138609;-83
2021/07/07 17:29:52;;;;;;;8.40;2.95;;;;;;;19.30;74.70;101031.15;5147346;56;1138673;-77
2021/07/07 17:34:58;;;;;;;20.08;18.00;;;;;;;19.22;74.54;101029.30;5183215;55;1138606;-75
2021/07/07 17:40:05;;;;;;;4.47;4.08;;;;;;;19.15;75.17;101032.27;5208299;55;1142877;-77
2021/07/07 17:45:11;;;;;;;5.70;4.05;;;;;;;19.05;75.72;101034.76;5224683;55;1138632;-75
2021/07/07 17:50:17;;;;;;;4.30;2.33;;;;;;;18.99;76.19;101042.93;5224821;55;1138757;-76
2021/07/07 17:55:24;;;;;;;3.30;1.55;;;;;;;18.95;76.54;101044.24;5224253;55;1138697;-79
2021/07/07 18:00:29;;;;;;;4.65;2.75;;;;;;;18.91;77.11;101054.47;5197665;55;1138576;-81
2021/07/07 18:05:35;;;;;;;3.00;1.95;;;;;;;18.93;76.87;101047.61;5196388;55;1138654;-81
2021/07/07 18:10:41;;;;;;;4.53;2.87;;;;;;;19.09;77.33;101049.53;5224050;55;1138575;-78
2021/07/07 18:15:47;;;;;;;5.37;3.42;;;;;;;19.27;77.16;101059.63;5224434;55;1138598;-81
2021/07/07 18:20:53;;;;;;;21.62;16.05;;;;;;;19.30;76.64;101062.00;5224017;55;1138799;-76
2021/07/07 18:26:00;;;;;;;4.62;1.90;;;;;;;19.39;76.58;101058.86;5188565;55;1142799;-76
2021/07/07 18:31:06;;;;;;;16.42;10.95;;;;;;;19.46;76.77;101064.73;5187624;55;1138690;-75
2021/07/07 18:36:12;;;;;;;9.23;6.50;;;;;;;19.36;76.40;101104.28;5155073;55;1142868;-78
2021/07/07 18:41:18;;;;;;;7.35;3.77;;;;;;;19.31;76.34;101102.06;5161302;56;1138600;-78
2021/07/07 18:46:24;;;;;;;1.37;1.30;;;;;;;19.29;76.51;101109.44;5162792;55;1138543;-82
2021/07/07 18:51:30;;;;;;;10.75;6.37;;;;;;;19.20;76.63;101112.25;5132791;55;1138746;-85
2021/07/07 18:56:36;;;;;;;7.62;4.35;;;;;;;18.97;77.41;101107.42;5146427;56;1140786;-80
2021/07/07 19:01:41;;;;;;;7.37;4.72;;;;;;;18.84;77.78;101108.86;5137396;56;1138808;-76
2021/07/07 19:06:52;;;;;;;17.37;14.07;;;;;;;18.81;78.55;101118.55;5126866;56;1138700;-76
2021/07/07 19:11:56;;;;;;;11.28;9.10;;;;;;;18.78;78.54;101108.17;5126613;56;1142941;-76
2021/07/07 19:17:02;;;;;;;6.10;4.65;;;;;;;18.79;78.55;101113.87;5145288;55;1140927;-77
2021/07/07 19:22:07;;;;;;;7.28;2.60;;;;;;;18.81;78.56;101114.02;5165139;55;1138792;-73
2021/07/07 19:27:13;;;;;;;3.27;2.27;;;;;;;18.80;78.72;101116.86;5167308;55;1138620;-79
2021/07/07 19:32:19;;;;;;;2.22;2.00;;;;;;;18.93;78.92;101128.03;5151188;56;1138651;-80
2021/07/07 19:37:25;;;;;;;5.12;2.50;;;;;;;18.93;78.55;101129.37;5151041;55;1138735;-82
2021/07/07 19:42:30;;;;;;;2.17;1.42;;;;;;;18.96;78.40;101137.07;5196536;55;1138623;-77
2021/07/07 19:47:36;;;;;;;2.62;1.87;;;;;;;19.02;78.58;101136.45;5186677;55;1138674;-77
2021/07/07 19:52:42;;;;;;;5.10;1.50;;;;;;;19.04;78.56;101141.66;5170429;55;1138626;-74
2021/07/07 19:57:48;;;;;;;3.56;1.24;;;;;;;18.97;78.45;101169.08;5147166;56;1138608;-78
2021/07/07 20:02:56;;;;;;;5.22;1.40;;;;;;;18.97;78.44;101162.87;5147341;56;1138586;-77
2021/07/07 20:08:02;;;;;;;2.95;1.32;;;;;;;18.88;78.55;101160.66;5127721;56;1139116;-78
2021/07/07 20:13:08;;;;;;;2.05;1.35;;;;;;;18.80;78.78;101173.14;5147523;56;1138862;-83
2021/07/07 20:18:13;;;;;;;1.82;1.05;;;;;;;18.84;79.08;101157.09;5147587;56;1138920;-83
2021/07/07 20:23:19;;;;;;;1.37;1.23;;;;;;;18.82;79.34;101178.70;5147818;56;1138780;-81
2021/07/07 20:28:26;;;;;;;2.95;1.37;;;;;;;18.80;79.11;101178.00;5147357;56;1138631;-78
2021/07/07 20:33:31;;;;;;;2.47;1.07;;;;;;;18.82;79.24;101171.99;5147433;56;1138600;-78
2021/07/07 20:38:37;;;;;;;1.40;1.30;;;;;;;18.78;79.25;101188.06;5159028;55;1138755;-82
2021/07/07 20:43:43;;;;;;;2.72;1.50;;;;;;;18.75;79.50;101190.20;5175798;55;1138725;-83
2021/07/07 20:48:49;;;;;;;3.67;1.92;;;;;;;18.75;79.47;101185.69;5167411;55;1138631;-77
2021/07/07 20:53:55;;;;;;;1.20;1.10;;;;;;;18.82;79.56;101183.21;5147415;55;1138787;-78
2021/07/07 20:59:00;;;;;;;1.02;1.02;;;;;;;18.75;79.59;101192.39;5147965;55;1138801;-77
2021/07/07 21:04:07;;;;;;;3.62;1.72;;;;;;;18.73;79.53;101180.14;5165528;55;1138780;-76
2021/07/07 21:09:13;;;;;;;1.72;1.57;;;;;;;18.70;79.51;101188.48;5160118;55;1138688;-92
2021/07/07 21:14:18;;;;;;;2.03;1.93;;;;;;;18.67;79.68;101177.57;5149956;56;1138888;-87
2021/07/07 21:19:24;;;;;;;2.65;1.67;;;;;;;18.69;79.90;101164.86;5149019;55;1138791;-84
2021/07/07 21:24:31;;;;;;;2.70;1.45;;;;;;;18.69;79.84;101170.72;5149190;56;1138693;-82
2021/07/07 21:29:37;;;;;;;3.58;1.40;;;;;;;18.75;80.05;101180.83;5149344;56;1138884;-86
2021/07/07 21:34:43;;;;;;;3.55;1.72;;;;;;;18.68;79.79;101180.59;5149117;56;1138698;-79
2021/07/07 21:39:49;;;;;;;3.00;1.60;;;;;;;18.56;79.94;101183.15;5149032;56;1138727;-77
2021/07/07 21:44:55;;;;;;;4.10;1.77;;;;;;;18.44;80.07;101191.92;5152311;55;1138684;-77
2021/07/07 21:50:00;;;;;;;3.70;1.82;;;;;;;18.42;80.40;101201.95;5153682;55;1138703;-92
2021/07/07 21:55:08;;;;;;;5.40;2.08;;;;;;;18.46;80.47;101197.97;5150971;55;1138729;-81
2021/07/07 22:00:24;;;;;;;4.97;1.32;;;;;;;18.50;80.78;101202.00;5144407;55;1138787;-78
2021/07/07 22:05:32;;;;;;;4.35;2.05;;;;;;;18.49;80.31;101201.66;5149321;55;1138633;-81
2021/07/07 22:10:38;;;;;;;7.78;1.87;;;;;;;18.44;80.27;101201.30;5171578;55;1138583;-78
2021/07/07 22:15:44;;;;;;;7.87;2.20;;;;;;;18.49;80.54;101204.84;5154103;55;1138766;-83
2021/07/07 22:20:50;;;;;;;11.53;1.82;;;;;;;18.49;80.59;101200.81;5166574;55;1138688;-84
2021/07/07 22:25:56;;;;;;;6.50;1.80;;;;;;;18.46;80.38;101211.38;5154981;55;1140782;-78
2021/07/07 22:31:01;;;;;;;10.63;1.90;;;;;;;18.38;80.48;101215.29;5148944;56;1138903;-91
2021/07/07 22:36:07;;;;;;;3.72;1.47;;;;;;;18.37;80.68;101228.34;5149074;55;1140789;-82
2021/07/07 22:41:13;;;;;;;3.35;1.95;;;;;;;18.36;80.82;101229.83;5149257;56;1138750;-81
2021/07/07 22:46:18;;;;;;;2.77;2.37;;;;;;;18.36;80.81;101239.20;5148756;56;1138805;-82
2021/07/07 22:51:25;;;;;;;4.92;1.90;;;;;;;18.35;80.85;101235.67;5148558;56;1138835;-86
2021/07/07 22:56:31;;;;;;;5.05;2.00;;;;;;;18.43;81.02;101230.91;5149594;56;1138843;-77
2021/07/07 23:01:36;;;;;;;8.33;1.60;;;;;;;18.38;80.54;101233.20;5149653;56;1138812;-89
2021/07/07 23:06:42;;;;;;;10.78;2.12;;;;;;;18.34;80.66;101238.01;5149406;56;1138691;-79
2021/07/07 23:11:48;;;;;;;8.65;2.33;;;;;;;18.36;80.81;101239.20;5149321;56;1140891;-81
2021/07/07 23:16:54;;;;;;;6.63;2.13;;;;;;;18.31;80.55;101234.81;5149695;56;1138947;-84